Time;durP1;ratioP1;P1;durP2;ratioP2;P2;SDS_P1;SDS_P2;PMS_P1;PMS_P2;Temp;Humidity;BMP_temperature;BMP_pressure;BME280_temperature;BME280_humidity;BME280_pressure;Samples;Min_cycle;Max_cycle;Signal;HPM_P1;HPM_P2
2022/01/11 00:01:22;;;;;;;38.08;23.77;;;0.70;99.90;;;;;;5065701;28;20048;-70
2022/01/11 00:03:48;;;;;;;42.63;23.15;;;0.70;99.90;;;;;;5039634;28;20370;-69
2022/01/11 00:08:41;;;;;;;40.60;22.67;;;0.70;99.90;;;;;;5071073;28;20045;-69
2022/01/11 00:11:06;;;;;;;38.05;21.73;;;1.10;99.90;;;;;;5071357;28;20458;-69
2022/01/11 00:13:37;;;;;;;38.63;21.92;;;0.70;99.90;;;;;;5069007;28;20094;-69
2022/01/11 00:16:04;;;;;;;35.70;22.63;;;0.70;99.90;;;;;;5052411;28;20496;-69
2022/01/11 00:18:30;;;;;;;39.35;22.65;;;0.70;99.90;;;;;;5071037;28;20101;-69
2022/01/11 00:20:56;;;;;;;33.50;21.15;;;0.60;99.90;;;;;;5070948;28;20049;-69
2022/01/11 00:25:50;;;;;;;38.40;22.27;;;0.50;99.90;;;;;;5070949;28;20060;-69
2022/01/11 00:28:18;;;;;;;34.13;21.95;;;0.70;99.90;;;;;;5052431;28;20045;-69
2022/01/11 00:30:46;;;;;;;34.63;20.98;;;0.40;99.90;;;;;;5071199;28;20049;-69
2022/01/11 00:33:19;;;;;;;37.45;21.95;;;0.40;99.90;;;;;;5052429;28;20097;-69
2022/01/11 00:35:56;;;;;;;36.50;21.30;;;0.40;99.90;;;;;;5054403;28;20052;-69
2022/01/11 00:38:22;;;;;;;35.58;22.58;;;0.30;99.90;;;;;;5036132;28;20480;-70
2022/01/11 00:40:50;;;;;;;36.45;22.25;;;0.30;99.90;;;;;;5054051;28;20057;-69
2022/01/11 00:43:21;;;;;;;36.70;21.77;;;0.30;99.90;;;;;;5019648;28;20135;-69
2022/01/11 00:45:48;;;;;;;32.40;21.10;;;0.30;99.90;;;;;;5053379;28;20170;-69
2022/01/11 00:48:14;;;;;;;36.33;21.80;;;0.40;99.90;;;;;;5069212;28;20084;-69
2022/01/11 00:50:43;;;;;;;41.38;21.63;;;0.30;99.90;;;;;;5051871;28;20076;-70
2022/01/11 00:53:10;;;;;;;37.90;21.90;;;0.40;99.90;;;;;;5052289;28;20052;-70
2022/01/11 00:55:38;;;;;;;36.05;22.15;;;0.30;99.90;;;;;;5070309;28;20052;-70
2022/01/11 00:58:04;;;;;;;34.47;21.13;;;-0.10;99.90;;;;;;5068780;28;20044;-70
2022/01/11 01:00:32;;;;;;;39.53;22.00;;;0.20;99.90;;;;;;5052619;28;20078;-70
2022/01/11 01:02:57;;;;;;;37.22;22.08;;;0.10;99.90;;;;;;5058354;28;20443;-70
2022/01/11 01:05:23;;;;;;;37.45;21.95;;;0.20;99.90;;;;;;5068892;28;20080;-70
2022/01/11 01:07:50;;;;;;;36.60;21.40;;;0.10;99.90;;;;;;5067663;28;20415;-69
2022/01/11 01:12:44;;;;;;;34.70;21.70;;;0.10;99.90;;;;;;5043590;28;20056;-70
2022/01/11 01:15:10;;;;;;;37.58;21.58;;;0.10;99.90;;;;;;5070154;28;20049;-70
2022/01/11 01:17:36;;;;;;;38.33;22.70;;;0.00;99.90;;;;;;5067125;28;20064;-69
2022/01/11 01:20:03;;;;;;;34.10;21.40;;;0.10;99.90;;;;;;5070111;28;20044;-70
2022/01/11 01:22:28;;;;;;;36.42;22.02;;;0.00;99.90;;;;;;5069972;28;20131;-70
2022/01/11 01:24:54;;;;;;;38.35;22.10;;;0.00;99.90;;;;;;5069519;28;20132;-70
2022/01/11 01:27:20;;;;;;;35.92;22.50;;;0.10;99.90;;;;;;5070409;28;20516;-70
2022/01/11 01:29:45;;;;;;;38.25;22.85;;;0.10;99.90;;;;;;5072740;28;20052;-69
2022/01/11 01:32:11;;;;;;;38.83;23.33;;;0.10;99.90;;;;;;5050736;28;20555;-70
2022/01/11 01:34:37;;;;;;;34.30;21.85;;;0.10;99.90;;;;;;5051202;28;20094;-70
2022/01/11 01:37:04;;;;;;;40.08;23.35;;;0.10;99.90;;;;;;5072452;28;20044;-70
2022/01/11 01:39:30;;;;;;;38.63;22.23;;;0.10;99.90;;;;;;5070264;28;20053;-70
2022/01/11 01:41:55;;;;;;;37.33;21.42;;;0.20;99.90;;;;;;5069514;28;20101;-70
2022/01/11 01:44:21;;;;;;;39.03;21.25;;;0.20;99.90;;;;;;5052367;28;20480;-70
2022/01/11 01:46:47;;;;;;;38.95;23.92;;;0.30;99.90;;;;;;5050456;28;20052;-70
2022/01/11 01:49:18;;;;;;;40.22;22.40;;;0.00;99.90;;;;;;5034891;28;20511;-70
2022/01/11 01:51:45;;;;;;;37.83;21.90;;;0.30;99.90;;;;;;5059411;28;20040;-69
2022/01/11 01:54:12;;;;;;;37.28;23.70;;;0.30;99.90;;;;;;5050600;28;20059;-70
2022/01/11 01:56:38;;;;;;;41.22;23.65;;;0.30;99.90;;;;;;5070084;28;20096;-69
2022/01/11 01:59:04;;;;;;;40.33;22.67;;;0.40;99.90;;;;;;5063787;28;20052;-69
2022/01/11 02:01:32;;;;;;;39.20;23.75;;;0.40;99.90;;;;;;5029783;28;20041;-70
2022/01/11 02:03:58;;;;;;;38.97;23.10;;;0.40;99.90;;;;;;5044310;28;20109;-70
2022/01/11 02:06:24;;;;;;;38.47;21.63;;;0.30;99.90;;;;;;5069293;28;20044;-69
2022/01/11 02:08:50;;;;;;;38.17;22.67;;;0.50;99.90;;;;;;5069022;28;20488;-69
2022/01/11 02:11:22;;;;;;;42.83;23.55;;;1.30;99.90;;;;;;5068319;28;20087;-70
2022/01/11 02:13:49;;;;;;;40.20;22.60;;;0.40;99.90;;;;;;5069038;28;20118;-70
2022/01/11 02:16:15;;;;;;;43.13;24.30;;;0.40;99.90;;;;;;5068327;28;20511;-69
2022/01/11 02:18:42;;;;;;;41.42;22.65;;;0.40;99.90;;;;;;5068873;28;20044;-70
2022/01/11 02:21:08;;;;;;;46.25;25.65;;;0.40;99.90;;;;;;5050012;28;20850;-69
2022/01/11 02:23:33;;;;;;;49.35;24.63;;;0.30;99.90;;;;;;5051360;28;20121;-70
2022/01/11 02:25:59;;;;;;;46.55;24.58;;;0.30;99.90;;;;;;5068391;28;20612;-70
2022/01/11 02:28:27;;;;;;;48.35;24.23;;;0.40;99.90;;;;;;5067588;28;20135;-70
2022/01/11 02:30:54;;;;;;;43.28;24.20;;;0.20;99.90;;;;;;5067514;28;20128;-70
2022/01/11 02:33:35;;;;;;;45.33;24.38;;;0.20;99.90;;;;;;5052303;28;20092;-70
2022/01/11 02:36:07;;;;;;;46.75;23.48;;;0.30;99.90;;;;;;5070732;28;20459;-70
2022/01/11 02:38:33;;;;;;;52.00;25.48;;;0.20;99.90;;;;;;5051668;28;20052;-69
2022/01/11 02:40:59;;;;;;;44.88;24.45;;;0.20;99.90;;;;;;5054581;28;20052;-70
2022/01/11 02:43:25;;;;;;;50.47;25.38;;;0.20;99.90;;;;;;5049499;28;20052;-70
2022/01/11 02:45:51;;;;;;;49.65;24.73;;;0.30;99.90;;;;;;5068726;28;20056;-70
2022/01/11 02:48:17;;;;;;;49.38;25.30;;;0.30;99.90;;;;;;5030772;28;20361;-70
2022/01/11 02:50:45;;;;;;;60.70;26.50;;;0.20;99.90;;;;;;5056630;28;20060;-70
2022/01/11 02:53:11;;;;;;;48.67;26.05;;;0.20;99.90;;;;;;5069253;28;20492;-70
2022/01/11 02:55:39;;;;;;;49.45;24.70;;;0.30;99.90;;;;;;5049849;28;20442;-70
2022/01/11 02:58:05;;;;;;;57.85;26.20;;;0.30;99.90;;;;;;5049881;28;20357;-70
2022/01/11 03:00:30;;;;;;;56.97;26.33;;;0.30;99.90;;;;;;5068048;28;20044;-70
2022/01/11 03:02:56;;;;;;;77.82;26.73;;;0.30;99.90;;;;;;5067360;28;20105;-70
2022/01/11 03:05:22;;;;;;;55.60;25.70;;;0.30;99.90;;;;;;5068226;28;20414;-70
2022/01/11 03:07:48;;;;;;;59.28;25.45;;;0.30;99.90;;;;;;5050973;28;20109;-69
2022/01/11 03:10:32;;;;;;;65.18;24.65;;;0.40;99.90;;;;;;5028609;28;20437;-69
2022/01/11 03:13:04;;;;;;;63.10;26.55;;;0.40;99.90;;;;;;5067433;28;20063;-70
2022/01/11 03:15:30;;;;;;;58.13;25.75;;;0.50;99.90;;;;;;5068679;28;20044;-69
2022/01/11 03:17:56;;;;;;;73.82;27.98;;;0.40;99.90;;;;;;5066170;28;20055;-70
2022/01/11 03:20:22;;;;;;;61.97;25.75;;;0.40;99.90;;;;;;5068193;28;20044;-70
2022/01/11 03:22:48;;;;;;;75.65;28.30;;;1.50;99.90;;;;;;5062064;28;20052;-70
2022/01/11 03:25:14;;;;;;;62.40;28.88;;;0.50;99.90;;;;;;5058120;28;20040;-70
2022/01/11 03:27:40;;;;;;;58.25;26.70;;;0.40;99.90;;;;;;5067398;28;20052;-70
2022/01/11 03:30:07;;;;;;;67.70;27.73;;;0.50;99.90;;;;;;5068463;28;20059;-69
2022/01/11 03:32:33;;;;;;;70.13;27.50;;;0.00;99.90;;;;;;5030181;28;20060;-70
2022/01/11 03:34:59;;;;;;;60.83;27.73;;;0.50;99.90;;;;;;5051967;28;20056;-69
2022/01/11 03:37:24;;;;;;;67.95;27.58;;;2.00;99.90;;;;;;5049680;28;20056;-69
2022/01/11 03:39:51;;;;;;;62.78;27.08;;;0.50;99.90;;;;;;5066917;28;20074;-69
2022/01/11 03:42:16;;;;;;;60.38;26.75;;;0.50;99.90;;;;;;5055382;28;20102;-69
2022/01/11 03:44:42;;;;;;;67.05;28.67;;;0.50;99.90;;;;;;5075930;28;20045;-69
2022/01/11 03:47:08;;;;;;;73.75;29.23;;;0.50;99.90;;;;;;5070351;28;20053;-70
2022/01/11 03:49:34;;;;;;;58.03;27.02;;;0.40;99.90;;;;;;5073225;28;20166;-69
2022/01/11 03:51:59;;;;;;;70.00;28.88;;;0.50;99.90;;;;;;5067703;28;20056;-70
2022/01/11 03:54:42;;;;;;;59.50;27.13;;;0.50;99.90;;;;;;5073418;28;20056;-70
2022/01/11 03:57:07;;;;;;;55.35;26.67;;;0.50;99.90;;;;;;5071341;28;20058;-70
2022/01/11 03:59:33;;;;;;;65.88;26.58;;;0.50;99.90;;;;;;5074975;28;20048;-70
2022/01/11 04:01:59;;;;;;;67.60;28.70;;;0.50;99.90;;;;;;5055264;28;20053;-69
2022/01/11 04:04:26;;;;;;;66.82;27.05;;;0.20;99.90;;;;;;5054511;28;20109;-70
2022/01/11 04:06:51;;;;;;;58.72;27.65;;;0.40;99.90;;;;;;5052685;28;20080;-70
2022/01/11 04:09:18;;;;;;;64.40;29.10;;;0.40;99.90;;;;;;5071221;28;20106;-70
2022/01/11 04:11:44;;;;;;;67.00;28.45;;;0.40;99.90;;;;;;5052299;28;20048;-70
2022/01/11 04:14:09;;;;;;;66.13;28.13;;;0.40;99.90;;;;;;5052784;28;20071;-69
2022/01/11 04:16:35;;;;;;;64.15;29.52;;;0.40;99.90;;;;;;5069727;28;20052;-70
2022/01/11 04:19:01;;;;;;;68.93;27.48;;;1.60;99.90;;;;;;5071655;28;20049;-70
2022/01/11 04:21:26;;;;;;;69.05;28.10;;;0.50;99.90;;;;;;5071109;28;20051;-69
2022/01/11 04:23:53;;;;;;;71.53;29.85;;;0.40;99.90;;;;;;5057307;28;20128;-70
2022/01/11 04:26:19;;;;;;;70.00;29.05;;;1.30;99.90;;;;;;5063898;28;20059;-69
2022/01/11 04:28:45;;;;;;;66.50;27.90;;;0.50;99.90;;;;;;5051940;28;20405;-70
2022/01/11 04:31:10;;;;;;;65.88;28.13;;;0.50;99.90;;;;;;5069973;28;20438;-70
2022/01/11 04:33:36;;;;;;;76.40;27.85;;;0.60;99.90;;;;;;5053529;28;20147;-70
2022/01/11 04:36:03;;;;;;;67.78;25.75;;;0.60;99.90;;;;;;5071349;28;20532;-69
2022/01/11 04:38:30;;;;;;;64.68;27.98;;;0.60;99.90;;;;;;5074617;28;20063;-70
2022/01/11 04:40:57;;;;;;;68.82;28.38;;;0.50;99.90;;;;;;5071105;28;20395;-70
2022/01/11 04:43:22;;;;;;;66.68;29.73;;;0.50;99.90;;;;;;5069698;28;20102;-70
2022/01/11 04:45:48;;;;;;;70.95;28.17;;;0.60;99.90;;;;;;5070925;28;20052;-69
2022/01/11 04:48:15;;;;;;;67.72;28.70;;;0.50;99.90;;;;;;5052216;28;20408;-69
2022/01/11 04:50:42;;;;;;;65.90;29.02;;;0.50;99.90;;;;;;5045354;28;20057;-69
2022/01/11 04:53:08;;;;;;;63.38;26.90;;;0.50;99.90;;;;;;5070502;28;20090;-69
2022/01/11 04:55:33;;;;;;;62.60;28.05;;;0.50;99.90;;;;;;5052501;28;20075;-70
2022/01/11 04:57:59;;;;;;;66.30;28.73;;;0.50;99.90;;;;;;5051971;28;20057;-69
2022/01/11 05:00:26;;;;;;;67.57;29.52;;;0.50;99.90;;;;;;5070535;28;20064;-70
2022/01/11 05:02:52;;;;;;;58.22;27.00;;;0.60;99.90;;;;;;5033377;28;20051;-69
2022/01/11 05:05:18;;;;;;;64.45;28.50;;;0.60;99.90;;;;;;5035953;28;20575;-70
2022/01/11 05:07:45;;;;;;;65.93;27.58;;;0.50;99.90;;;;;;5052251;28;20056;-70
2022/01/11 05:10:12;;;;;;;63.03;28.23;;;0.50;99.90;;;;;;5068772;28;20064;-70
2022/01/11 05:12:38;;;;;;;58.70;27.95;;;0.50;99.90;;;;;;5067556;28;20048;-70
2022/01/11 05:15:12;;;;;;;62.45;28.35;;;0.40;99.90;;;;;;5052298;28;20057;-69
2022/01/11 05:17:39;;;;;;;52.35;25.67;;;0.60;99.90;;;;;;5068955;28;20122;-69
2022/01/11 05:20:06;;;;;;;59.65;25.65;;;0.60;99.90;;;;;;5070100;28;20464;-70
2022/01/11 05:22:32;;;;;;;53.30;26.17;;;0.60;99.90;;;;;;5069588;28;20060;-70
2022/01/11 05:24:57;;;;;;;52.28;25.30;;;0.60;99.90;;;;;;5069009;28;20404;-70
2022/01/11 05:27:23;;;;;;;52.67;25.42;;;0.50;99.90;;;;;;5069152;28;20095;-70
2022/01/11 05:29:48;;;;;;;49.03;24.42;;;0.60;99.90;;;;;;5072133;28;20049;-69
2022/01/11 05:32:14;;;;;;;54.90;26.05;;;0.60;99.90;;;;;;5068075;28;20127;-70
2022/01/11 05:34:40;;;;;;;49.38;23.63;;;1.10;99.90;;;;;;5051833;28;20555;-70
2022/01/11 05:37:06;;;;;;;48.88;24.30;;;0.60;99.90;;;;;;5034931;28;20128;-69
2022/01/11 05:39:31;;;;;;;50.13;25.10;;;0.70;99.90;;;;;;5050222;28;20179;-70
2022/01/11 05:41:59;;;;;;;47.35;23.70;;;0.70;99.90;;;;;;5033486;28;20393;-69
2022/01/11 05:44:25;;;;;;;52.40;24.98;;;0.70;99.90;;;;;;5068956;28;20448;-70
2022/01/11 05:46:51;;;;;;;47.45;23.40;;;0.80;99.90;;;;;;5071911;28;20048;-69
2022/01/11 05:49:17;;;;;;;52.60;24.40;;;0.70;99.90;;;;;;5051335;28;20545;-69
2022/01/11 05:51:42;;;;;;;47.40;24.60;;;0.70;99.90;;;;;;5051009;28;20123;-69
2022/01/11 05:54:09;;;;;;;48.13;24.17;;;0.70;99.90;;;;;;5068478;28;20135;-69
2022/01/11 05:56:34;;;;;;;50.83;23.98;;;0.70;99.90;;;;;;5068557;28;20045;-69
2022/01/11 05:59:00;;;;;;;56.10;23.90;;;0.70;99.90;;;;;;5068765;28;20045;-68
2022/01/11 06:01:25;;;;;;;48.20;24.42;;;2.40;99.90;;;;;;5049775;28;20139;-69
2022/01/11 06:03:51;;;;;;;44.47;23.15;;;0.70;99.90;;;;;;5068543;28;20441;-69
2022/01/11 06:06:17;;;;;;;48.63;23.98;;;0.70;99.90;;;;;;5067986;28;20412;-69
2022/01/11 06:08:43;;;;;;;48.20;24.50;;;0.70;99.90;;;;;;5068659;28;20087;-69
2022/01/11 06:11:09;;;;;;;46.05;24.58;;;0.70;99.90;;;;;;5051897;28;20040;-69
2022/01/11 06:13:34;;;;;;;53.65;24.55;;;0.70;99.90;;;;;;5046883;28;20048;-70
2022/01/11 06:16:00;;;;;;;48.05;24.25;;;0.60;99.90;;;;;;5067818;28;20421;-71
2022/01/11 06:18:26;;;;;;;43.20;23.35;;;0.70;99.90;;;;;;5068847;28;20509;-68
2022/01/11 06:20:51;;;;;;;48.03;23.77;;;0.80;99.90;;;;;;5049211;28;20048;-69
2022/01/11 06:23:17;;;;;;;47.00;23.90;;;0.70;99.90;;;;;;5068365;28;20132;-69
2022/01/11 06:25:42;;;;;;;50.47;24.10;;;0.70;99.90;;;;;;5068656;28;20045;-69
2022/01/11 06:28:08;;;;;;;48.28;23.23;;;1.60;99.90;;;;;;5066285;28;20060;-71
2022/01/11 06:30:34;;;;;;;47.20;24.38;;;0.70;99.90;;;;;;5067796;28;20053;-71
2022/01/11 06:32:59;;;;;;;45.85;23.13;;;0.70;99.90;;;;;;5067441;28;20496;-68
2022/01/11 06:35:25;;;;;;;48.97;22.85;;;0.70;99.90;;;;;;5067860;28;20068;-71
2022/01/11 06:37:51;;;;;;;52.67;24.80;;;0.80;99.90;;;;;;5068719;28;20149;-69
2022/01/11 06:40:20;;;;;;;46.30;23.88;;;0.70;99.90;;;;;;5049982;28;20051;-71
2022/01/11 06:42:47;;;;;;;48.72;24.85;;;0.70;99.90;;;;;;5049877;28;20052;-68
2022/01/11 06:45:14;;;;;;;50.47;24.52;;;0.70;99.90;;;;;;5066970;28;20334;-69
2022/01/11 06:47:41;;;;;;;42.28;22.60;;;0.70;99.90;;;;;;5049895;28;20057;-71
2022/01/11 06:50:08;;;;;;;50.15;23.80;;;0.60;99.90;;;;;;5064292;28;20044;-71
2022/01/11 06:52:35;;;;;;;52.28;23.92;;;1.10;99.90;;;;;;5030056;28;20408;-71
2022/01/11 06:55:01;;;;;;;52.13;22.55;;;0.70;99.90;;;;;;5048288;28;20053;-69
2022/01/11 06:57:28;;;;;;;44.00;23.38;;;0.70;99.90;;;;;;5049916;28;20063;-71
2022/01/11 06:59:54;;;;;;;48.70;24.60;;;0.80;99.90;;;;;;5068649;28;20436;-70
2022/01/11 07:02:20;;;;;;;55.00;23.55;;;0.70;99.90;;;;;;5048296;28;20135;-71
2022/01/11 07:04:45;;;;;;;48.13;22.77;;;0.70;99.90;;;;;;5062070;28;20053;-70
2022/01/11 07:07:11;;;;;;;48.20;23.05;;;0.70;99.90;;;;;;5048168;28;20098;-71
2022/01/11 07:09:37;;;;;;;45.13;23.77;;;0.80;99.90;;;;;;5046787;28;20053;-71
2022/01/11 07:12:03;;;;;;;44.47;22.17;;;0.80;99.90;;;;;;5047921;28;20088;-71
2022/01/11 07:14:29;;;;;;;41.00;20.35;;;-0.20;99.90;;;;;;5047607;28;20104;-70
2022/01/11 07:16:55;;;;;;;44.17;20.88;;;0.80;99.90;;;;;;5047679;28;20474;-67
2022/01/11 07:19:20;;;;;;;45.20;22.25;;;0.80;99.90;;;;;;5067844;28;20462;-67
2022/01/11 07:21:47;;;;;;;42.53;19.65;;;0.80;99.90;;;;;;5049897;28;20102;-68
2022/01/11 07:24:14;;;;;;;42.45;21.65;;;0.90;99.90;;;;;;5066788;28;20057;-67
2022/01/11 07:26:40;;;;;;;44.15;20.38;;;0.90;99.90;;;;;;5049250;28;20060;-67
2022/01/11 07:29:07;;;;;;;45.05;23.33;;;0.80;99.90;;;;;;5067318;28;20465;-67
2022/01/11 07:31:34;;;;;;;40.67;21.13;;;2.00;99.90;;;;;;5047175;28;20130;-67
2022/01/11 07:33:59;;;;;;;44.42;19.02;;;0.90;99.90;;;;;;5033419;28;20060;-67
2022/01/11 07:36:25;;;;;;;46.83;21.20;;;2.30;99.90;;;;;;5049128;28;20044;-67
2022/01/11 07:38:51;;;;;;;44.25;21.00;;;1.00;99.90;;;;;;5068293;28;20101;-68
2022/01/11 07:41:17;;;;;;;44.53;21.50;;;1.10;99.90;;;;;;5067519;28;20052;-68
2022/01/11 07:43:43;;;;;;;39.03;20.13;;;1.00;99.90;;;;;;5067737;28;20048;-68
2022/01/11 07:46:09;;;;;;;44.53;21.48;;;0.30;99.90;;;;;;5065966;28;20056;-67
2022/01/11 07:48:34;;;;;;;38.80;19.63;;;1.00;99.90;;;;;;5067888;28;20052;-67
2022/01/11 07:51:00;;;;;;;43.35;21.42;;;1.00;99.90;;;;;;5067093;28;20045;-67
2022/01/11 07:53:26;;;;;;;42.85;19.95;;;1.10;99.90;;;;;;5067074;28;20095;-67
2022/01/11 07:55:51;;;;;;;42.08;20.85;;;1.10;99.90;;;;;;5067100;28;20131;-67
2022/01/11 07:58:17;;;;;;;40.97;21.10;;;1.20;99.90;;;;;;5049714;28;20134;-67
2022/01/11 08:00:42;;;;;;;39.78;19.73;;;1.10;99.90;;;;;;5066482;28;20079;-67
2022/01/11 08:03:08;;;;;;;39.10;20.27;;;1.10;99.90;;;;;;5066193;28;20135;-67
2022/01/11 08:05:34;;;;;;;37.08;19.17;;;1.20;99.90;;;;;;5067913;28;20084;-67
2022/01/11 08:08:00;;;;;;;41.65;20.02;;;1.20;99.90;;;;;;5068599;28;20493;-67
2022/01/11 08:10:26;;;;;;;42.03;19.63;;;1.20;99.90;;;;;;5049449;28;20045;-67
2022/01/11 08:12:52;;;;;;;37.85;18.33;;;1.20;99.90;;;;;;5053605;28;20448;-68
2022/01/11 08:15:18;;;;;;;38.53;18.70;;;1.20;99.90;;;;;;5047492;28;20132;-68
2022/01/11 08:17:43;;;;;;;34.58;19.67;;;1.30;99.90;;;;;;5029114;28;20060;-68
2022/01/11 08:20:09;;;;;;;39.72;20.10;;;1.30;99.90;;;;;;5047434;28;20146;-68
2022/01/11 08:22:36;;;;;;;42.00;21.08;;;1.40;99.90;;;;;;5065692;28;20053;-68
2022/01/11 08:25:02;;;;;;;38.50;20.75;;;1.40;99.90;;;;;;5063416;28;20045;-67
2022/01/11 08:27:28;;;;;;;34.25;16.85;;;1.40;99.90;;;;;;5064445;28;20068;-65
2022/01/11 08:29:54;;;;;;;37.80;19.77;;;1.50;99.90;;;;;;5070094;28;20518;-68
2022/01/11 08:32:19;;;;;;;40.67;19.52;;;1.60;99.90;;;;;;5060275;28;20049;-69
2022/01/11 08:34:45;;;;;;;39.60;20.48;;;1.60;99.90;;;;;;5045585;28;20101;-65
2022/01/11 08:37:11;;;;;;;38.53;19.70;;;1.70;99.90;;;;;;5073832;28;20497;-67
2022/01/11 08:39:36;;;;;;;32.25;18.85;;;1.60;99.90;;;;;;5069960;28;20558;-66
2022/01/11 08:42:03;;;;;;;41.03;20.25;;;1.60;99.90;;;;;;5067164;28;20040;-66
2022/01/11 08:44:29;;;;;;;36.25;19.05;;;1.60;99.90;;;;;;5076342;28;20052;-67
2022/01/11 08:46:55;;;;;;;38.45;19.45;;;1.60;99.90;;;;;;5069493;28;20063;-67
2022/01/11 08:49:21;;;;;;;37.80;19.17;;;1.50;99.90;;;;;;5070344;28;20074;-67
2022/01/11 08:51:47;;;;;;;36.78;18.92;;;1.40;99.90;;;;;;5048293;28;20392;-67
2022/01/11 08:54:14;;;;;;;34.47;17.15;;;1.50;99.90;;;;;;5067141;28;20158;-66
2022/01/11 08:56:40;;;;;;;33.25;18.25;;;1.50;99.90;;;;;;5066183;28;20051;-67
2022/01/11 08:59:06;;;;;;;36.75;18.02;;;1.50;99.90;;;;;;5051171;28;20113;-67
2022/01/11 09:01:34;;;;;;;34.20;16.70;;;1.60;99.90;;;;;;5063578;28;20475;-66
2022/01/11 09:04:00;;;;;;;34.33;17.25;;;1.60;99.90;;;;;;5068069;28;20104;-66
2022/01/11 09:06:26;;;;;;;36.40;18.25;;;1.50;99.90;;;;;;5050658;28;20080;-67
2022/01/11 09:08:52;;;;;;;33.17;17.50;;;1.50;99.90;;;;;;5061874;28;20539;-67
2022/01/11 09:11:17;;;;;;;32.45;16.83;;;1.50;99.90;;;;;;5051725;28;20485;-67
2022/01/11 09:13:43;;;;;;;30.58;16.20;;;1.40;99.90;;;;;;5069435;28;20079;-67
2022/01/11 09:16:11;;;;;;;31.83;15.95;;;2.70;99.90;;;;;;5068486;28;20397;-66
2022/01/11 09:18:37;;;;;;;31.50;16.55;;;1.40;99.90;;;;;;5070352;28;20052;-66
2022/01/11 09:21:04;;;;;;;30.30;15.98;;;1.50;99.90;;;;;;5069330;28;20049;-66
2022/01/11 09:23:31;;;;;;;31.02;16.33;;;1.40;99.90;;;;;;5051270;28;20060;-67
2022/01/11 09:25:58;;;;;;;31.67;16.70;;;1.40;99.90;;;;;;5050715;28;20049;-67
2022/01/11 09:28:23;;;;;;;32.45;16.45;;;1.40;99.90;;;;;;5069085;28;20099;-66
2022/01/11 09:30:50;;;;;;;29.25;15.80;;;1.50;99.90;;;;;;5069576;28;20080;-66
2022/01/11 09:33:17;;;;;;;28.52;15.32;;;1.50;99.90;;;;;;5052020;28;20052;-67
2022/01/11 09:35:43;;;;;;;28.83;14.57;;;1.50;99.90;;;;;;5031927;28;20390;-67
2022/01/11 09:38:09;;;;;;;26.42;14.55;;;1.60;99.90;;;;;;5047505;28;20064;-67
2022/01/11 09:40:35;;;;;;;29.77;16.17;;;1.50;99.90;;;;;;5015150;28;20115;-66
2022/01/11 09:43:01;;;;;;;26.27;15.40;;;1.60;99.90;;;;;;5030897;28;20053;-66
2022/01/11 09:45:26;;;;;;;26.13;14.88;;;1.70;99.90;;;;;;5048798;28;20049;-66
2022/01/11 09:47:52;;;;;;;27.15;14.73;;;1.70;99.90;;;;;;5030696;28;20413;-66
2022/01/11 09:50:19;;;;;;;28.55;15.68;;;1.70;99.90;;;;;;5031245;28;20049;-68
2022/01/11 09:52:45;;;;;;;27.45;14.35;;;1.90;99.90;;;;;;5015354;28;20052;-66
2022/01/11 09:55:13;;;;;;;27.55;14.40;;;1.90;99.90;;;;;;5048942;28;20045;-68
2022/01/11 09:57:41;;;;;;;26.00;14.35;;;2.50;99.90;;;;;;5049331;28;20440;-67
2022/01/11 10:00:10;;;;;;;25.23;13.93;;;2.00;99.90;;;;;;5048821;28;20056;-67
2022/01/11 10:02:36;;;;;;;24.30;13.70;;;2.10;99.90;;;;;;5048473;28;20290;-67
2022/01/11 10:05:05;;;;;;;23.15;12.90;;;2.50;99.90;;;;;;5049376;28;20059;-67
2022/01/11 10:07:35;;;;;;;21.00;12.70;;;2.30;99.90;;;;;;5049604;28;20045;-67
2022/01/11 10:10:01;;;;;;;25.48;13.52;;;2.20;99.90;;;;;;5048917;28;20128;-67
2022/01/11 10:12:34;;;;;;;22.65;14.20;;;2.30;99.90;;;;;;5057977;28;20094;-67
2022/01/11 10:14:59;;;;;;;23.08;13.35;;;2.30;99.90;;;;;;5068980;28;20164;-67
2022/01/11 10:17:36;;;;;;;21.90;13.15;;;2.40;99.90;;;;;;5050393;28;20056;-67
2022/01/11 10:20:10;;;;;;;22.15;12.65;;;2.40;99.90;;;;;;5050888;28;20480;-67
2022/01/11 10:22:49;;;;;;;23.92;12.98;;;2.40;99.90;;;;;;5070421;28;20067;-67
2022/01/11 10:25:16;;;;;;;22.23;13.07;;;2.50;99.90;;;;;;5050828;28;20136;-67
2022/01/11 10:27:41;;;;;;;24.08;14.27;;;2.50;99.90;;;;;;5068167;28;20045;-67
2022/01/11 10:30:14;;;;;;;22.38;13.88;;;2.60;99.90;;;;;;5069214;28;20044;-68
2022/01/11 10:32:41;;;;;;;22.00;12.80;;;2.60;99.90;;;;;;5069555;28;20068;-68
2022/01/11 10:35:08;;;;;;;24.08;12.60;;;2.50;99.90;;;;;;5050496;28;20105;-67
2022/01/11 10:37:40;;;;;;;19.67;11.32;;;2.50;99.90;;;;;;5050596;28;20053;-67
2022/01/11 10:40:10;;;;;;;22.55;13.57;;;2.60;99.90;;;;;;5050491;28;20045;-67
2022/01/11 10:42:41;;;;;;;25.35;14.48;;;2.50;99.90;;;;;;5049953;28;20048;-67
2022/01/11 10:45:09;;;;;;;22.60;14.07;;;2.60;99.90;;;;;;5068713;28;20048;-67
2022/01/11 10:47:39;;;;;;;21.67;12.63;;;2.60;99.90;;;;;;5036111;28;20052;-67
2022/01/11 10:50:12;;;;;;;23.45;13.90;;;2.70;99.90;;;;;;5049064;28;20128;-68
2022/01/11 10:52:39;;;;;;;23.00;13.20;;;2.90;99.90;;;;;;5059758;28;20441;-67
2022/01/11 10:55:08;;;;;;;23.17;13.63;;;3.00;99.90;;;;;;5066435;28;20512;-67
2022/01/11 10:57:37;;;;;;;21.45;13.00;;;3.20;99.90;;;;;;5067631;28;20048;-67
2022/01/11 11:00:09;;;;;;;25.83;14.25;;;3.30;99.90;;;;;;5033977;28;20044;-67
2022/01/11 11:02:35;;;;;;;22.42;13.18;;;3.40;99.90;;;;;;5067312;28;20428;-67
2022/01/11 11:05:18;;;;;;;26.85;14.27;;;3.40;99.90;;;;;;5065057;28;20095;-67
2022/01/11 11:07:54;;;;;;;22.25;13.48;;;3.50;99.90;;;;;;5069379;28;20051;-67
2022/01/11 11:10:47;;;;;;;23.77;14.45;;;3.50;99.90;;;;;;5070850;28;20135;-67
2022/01/11 11:13:27;;;;;;;25.02;13.05;;;3.80;99.90;;;;;;5066318;28;20048;-67
2022/01/11 11:15:55;;;;;;;21.75;13.32;;;5.20;99.90;;;;;;5066824;28;20052;-68
2022/01/11 11:18:37;;;;;;;25.00;12.95;;;6.30;99.90;;;;;;5064380;28;20041;-69
2022/01/11 11:21:18;;;;;;;21.33;13.20;;;6.80;99.90;;;;;;5064823;28;20402;-69
2022/01/11 11:23:45;;;;;;;22.40;12.63;;;7.20;99.90;;;;;;5064624;28;20491;-68
2022/01/11 11:26:11;;;;;;;20.73;12.23;;;7.40;99.90;;;;;;5062985;28;20160;-69
2022/01/11 11:28:39;;;;;;;17.58;12.10;;;8.10;99.90;;;;;;5065122;28;20095;-68
2022/01/11 11:31:05;;;;;;;16.45;10.05;;;9.30;99.90;;;;;;5044408;28;20076;-69
2022/01/11 11:33:32;;;;;;;16.33;11.88;;;10.20;99.90;;;;;;5028811;28;20053;-68
2022/01/11 11:35:58;;;;;;;18.92;12.27;;;11.10;99.90;;;;;;5026629;28;20112;-69
2022/01/11 11:38:29;;;;;;;18.92;12.05;;;10.60;99.90;;;;;;5056036;28;20453;-68
2022/01/11 11:40:56;;;;;;;18.02;11.88;;;10.50;99.90;;;;;;5066255;28;20137;-68
2022/01/11 11:43:22;;;;;;;17.52;11.98;;;10.40;99.90;;;;;;5064131;28;20445;-68
2022/01/11 11:45:49;;;;;;;19.05;11.90;;;10.30;99.90;;;;;;5063736;28;20155;-68
2022/01/11 11:48:23;;;;;;;19.25;12.07;;;10.00;99.90;;;;;;5063169;28;20102;-68
2022/01/11 11:51:07;;;;;;;20.15;11.90;;;9.80;99.90;;;;;;5045093;28;20048;-69
2022/01/11 11:53:38;;;;;;;22.15;13.38;;;9.40;99.90;;;;;;5065955;28;20067;-68
2022/01/11 11:56:16;;;;;;;19.75;12.38;;;8.90;99.90;;;;;;5063785;28;20590;-68
2022/01/11 11:58:47;;;;;;;17.90;12.07;;;8.30;99.90;;;;;;5046036;28;20115;-67
2022/01/11 12:01:29;;;;;;;19.48;12.25;;;7.60;99.90;;;;;;5064108;28;20056;-67
2022/01/11 12:03:55;;;;;;;22.23;13.25;;;7.80;99.90;;;;;;5050203;28;20106;-66
2022/01/11 12:06:28;;;;;;;19.45;12.77;;;6.60;99.90;;;;;;5050427;28;20349;-67
2022/01/11 12:09:11;;;;;;;21.38;12.73;;;6.30;99.90;;;;;;5033005;28;20134;-66
2022/01/11 12:11:45;;;;;;;19.02;12.55;;;6.10;99.90;;;;;;5032474;28;20052;-66
2022/01/11 12:14:32;;;;;;;21.48;13.63;;;5.60;99.90;;;;;;5051663;28;20052;-66
2022/01/11 12:17:17;;;;;;;;;;;5.40;99.90;;;;;;5060463;28;20041;-66
2022/01/11 12:19:53;;;;;;;20.88;12.90;;;5.20;99.90;;;;;;5052734;28;19921;-66
2022/01/11 12:22:32;;;;;;;20.23;13.10;;;4.90;99.90;;;;;;5070438;28;20088;-65
2022/01/11 12:25:02;;;;;;;19.92;12.30;;;4.70;99.90;;;;;;5069114;28;20128;-66
2022/01/11 12:27:28;;;;;;;24.60;13.88;;;4.70;99.90;;;;;;5069404;28;20132;-67
2022/01/11 12:30:17;;;;;;;23.33;12.73;;;4.60;99.90;;;;;;5051368;28;20134;-66
2022/01/11 12:33:08;;;;;;;21.52;13.70;;;4.50;99.90;;;;;;5051977;28;20099;-66
2022/01/11 12:35:48;;;;;;;23.05;13.57;;;4.30;99.90;;;;;;5051300;28;20053;-65
2022/01/11 12:38:14;;;;;;;23.40;14.30;;;4.10;99.90;;;;;;5070268;28;21354;-65
2022/01/11 12:40:40;;;;;;;23.50;13.85;;;4.00;99.90;;;;;;5051938;28;20045;-65
2022/01/11 12:43:30;;;;;;;25.23;14.23;;;5.20;99.90;;;;;;5069547;28;20064;-67
2022/01/11 12:46:04;;;;;;;25.70;15.23;;;3.90;99.90;;;;;;5070083;28;20048;-66